createdAt,value
2022-12-10T00:03:33.632Z,1.63
2022-12-10T00:08:40.025Z,1.75
2022-12-10T00:13:46.777Z,1.42
2022-12-10T00:18:53.429Z,1.50
2022-12-10T00:24:00.241Z,1.48
2022-12-10T00:29:08.445Z,1.60
2022-12-10T00:34:14.331Z,2.42
2022-12-10T00:39:22.390Z,2.03
2022-12-10T00:44:28.065Z,1.90
2022-12-10T00:49:33.590Z,2.05
2022-12-10T00:54:39.360Z,2.00
2022-12-10T00:59:45.131Z,1.70
2022-12-10T01:04:56.206Z,2.13
2022-12-10T01:10:04.287Z,1.77
2022-12-10T01:15:10.362Z,1.88
2022-12-10T01:20:16.067Z,1.48
2022-12-10T01:25:21.702Z,1.92
2022-12-10T01:30:27.360Z,2.22
2022-12-10T01:35:33.054Z,1.80
2022-12-10T01:40:42.176Z,2.00
2022-12-10T01:45:48.043Z,1.42
2022-12-10T01:50:53.849Z,2.15
2022-12-10T01:55:59.501Z,2.42
2022-12-10T02:01:37.219Z,3.42
2022-12-10T02:07:03.348Z,1.60
2022-12-10T02:12:55.462Z,1.92
2022-12-10T02:18:12.864Z,2.13
2022-12-10T02:23:29.930Z,1.98
2022-12-10T02:29:06.683Z,2.05
2022-12-10T02:34:14.025Z,2.28
2022-12-10T02:39:28.444Z,2.47
2022-12-10T02:44:40.159Z,2.08
2022-12-10T02:49:57.754Z,1.75
2022-12-10T02:55:07.901Z,2.15
2022-12-10T03:00:23.000Z,1.67
2022-12-10T03:06:05.615Z,2.03
2022-12-10T03:11:23.072Z,2.20
2022-12-10T03:16:36.319Z,2.70
2022-12-10T03:21:43.691Z,2.67
2022-12-10T03:26:52.241Z,2.10
2022-12-10T03:31:58.968Z,2.25
2022-12-10T03:37:05.639Z,2.75
2022-12-10T03:42:11.838Z,2.10
2022-12-10T03:47:17.444Z,2.88
2022-12-10T03:52:23.383Z,2.60
2022-12-10T03:57:29.419Z,2.45
2022-12-10T04:02:35.083Z,5.22
2022-12-10T04:07:40.761Z,1.92
2022-12-10T04:13:07.710Z,1.30
2022-12-10T04:18:13.369Z,1.27
2022-12-10T04:23:39.006Z,1.40
2022-12-10T04:28:44.998Z,2.33
2022-12-10T04:33:50.540Z,2.35
2022-12-10T04:38:55.976Z,2.58
2022-12-10T04:44:01.522Z,2.30
2022-12-10T04:49:07.865Z,3.30
2022-12-10T04:54:14.756Z,3.05
2022-12-10T04:59:20.633Z,2.25
2022-12-10T05:04:26.264Z,2.08
2022-12-10T05:09:31.935Z,2.63
2022-12-10T05:14:37.579Z,3.25
2022-12-10T05:19:43.226Z,2.92
2022-12-10T05:24:48.944Z,2.65
2022-12-10T05:29:54.582Z,2.50
2022-12-10T05:35:00.454Z,3.67
2022-12-10T05:40:07.109Z,2.42
2022-12-10T07:21:56.239Z,2.45
2022-12-10T07:27:02.010Z,3.20
2022-12-10T07:32:07.569Z,3.05
2022-12-10T07:37:13.287Z,2.70
2022-12-10T07:42:18.540Z,1.60
2022-12-10T07:47:24.443Z,5.90
2022-12-10T07:52:29.899Z,3.50
2022-12-10T07:57:35.389Z,2.67
2022-12-10T08:02:41.030Z,3.58
2022-12-10T08:07:46.774Z,5.88
2022-12-10T08:12:52.806Z,4.07
2022-12-10T08:17:58.762Z,4.70
2022-12-10T08:23:04.541Z,6.65
2022-12-10T08:28:10.745Z,5.65
2022-12-10T08:33:16.634Z,5.30
2022-12-10T08:38:22.145Z,6.88
2022-12-10T08:43:27.822Z,5.90
2022-12-10T08:48:36.043Z,2.65
2022-12-10T08:53:42.374Z,5.75
2022-12-10T08:58:52.838Z,8.65
2022-12-10T09:03:58.649Z,8.05
2022-12-10T09:09:04.939Z,3.10
2022-12-10T09:14:10.775Z,4.03
2022-12-10T09:19:20.068Z,2.83
2022-12-10T09:24:28.263Z,3.40
2022-12-10T09:29:33.909Z,5.18
2022-12-10T09:34:39.453Z,5.68
2022-12-10T09:39:45.132Z,2.30
2022-12-10T09:45:24.400Z,4.53
2022-12-10T09:50:50.350Z,3.00
2022-12-10T09:55:55.881Z,3.08
2022-12-10T10:01:32.318Z,2.80
2022-12-10T10:06:38.834Z,3.40
2022-12-10T10:11:46.924Z,3.17
2022-12-10T10:17:01.551Z,3.67
2022-12-10T10:22:07.573Z,4.60
2022-12-10T10:27:15.319Z,4.25
2022-12-10T10:32:50.856Z,3.28
2022-12-10T10:38:29.045Z,3.70
2022-12-10T10:44:11.242Z,3.95
2022-12-10T10:49:45.308Z,3.40
2022-12-10T10:54:51.210Z,3.83
2022-12-10T11:00:09.500Z,4.30
2022-12-10T11:05:25.874Z,4.10
2022-12-10T11:10:42.721Z,5.00
2022-12-10T11:16:13.430Z,4.93
2022-12-10T11:21:23.298Z,3.50
2022-12-10T11:26:54.151Z,3.05
2022-12-10T11:32:16.738Z,3.28
2022-12-10T11:38:05.822Z,3.30
2022-12-10T11:43:48.875Z,2.78
2022-12-10T11:49:19.784Z,3.85
2022-12-10T11:55:04.392Z,3.35
2022-12-10T12:00:46.153Z,2.47
2022-12-10T12:06:16.970Z,3.72
2022-12-10T12:11:47.960Z,2.92
2022-12-10T12:17:13.941Z,3.00
2022-12-10T12:22:52.400Z,3.40
2022-12-10T12:28:34.494Z,3.53
2022-12-10T12:34:13.178Z,3.75
2022-12-10T12:39:37.378Z,3.10
2022-12-10T12:44:59.337Z,3.00
2022-12-10T12:50:07.652Z,3.25
2022-12-10T12:55:52.698Z,2.83
2022-12-10T13:01:09.956Z,3.08
2022-12-10T13:06:25.787Z,4.05
2022-12-10T13:11:37.016Z,3.33
2022-12-10T13:16:47.988Z,5.03
2022-12-10T13:21:53.691Z,6.13
2022-12-10T13:27:36.042Z,5.53
2022-12-10T13:32:41.407Z,6.80
2022-12-10T13:37:50.314Z,6.20
2022-12-10T13:43:41.779Z,4.63
2022-12-10T13:48:47.371Z,5.10
2022-12-10T13:54:27.588Z,7.22
2022-12-10T13:59:45.715Z,6.80
2022-12-10T14:05:18.707Z,6.30
2022-12-10T14:10:33.447Z,6.85
2022-12-10T14:15:40.299Z,6.55
2022-12-10T14:20:49.592Z,5.88
2022-12-10T14:31:02.084Z,6.28
2022-12-10T14:36:08.409Z,8.30
2022-12-10T14:41:22.060Z,5.82
2022-12-10T14:46:30.257Z,5.38
2022-12-10T14:51:39.060Z,5.25
2022-12-10T14:56:46.254Z,7.45
2022-12-10T15:02:00.317Z,5.80
2022-12-10T15:07:07.201Z,6.07
2022-12-10T15:12:51.296Z,5.05
2022-12-10T15:18:12.458Z,5.82
2022-12-10T15:23:18.712Z,5.45
2022-12-10T15:28:38.059Z,4.95
2022-12-10T15:33:50.609Z,5.82
2022-12-10T15:38:56.287Z,5.15
2022-12-10T15:44:26.895Z,4.20
2022-12-10T15:49:33.480Z,3.65
2022-12-10T15:54:41.613Z,3.17
2022-12-10T16:00:21.066Z,3.70
2022-12-10T16:05:33.520Z,3.90
2022-12-10T16:10:40.023Z,3.42
2022-12-10T16:15:59.916Z,2.20
2022-12-10T16:21:06.859Z,2.80
2022-12-10T16:26:23.474Z,2.55
2022-12-10T16:31:29.394Z,3.88
2022-12-10T16:36:34.975Z,3.28
2022-12-10T16:41:40.784Z,2.22
2022-12-10T16:46:46.452Z,3.60
2022-12-10T16:51:54.157Z,2.42
2022-12-10T16:56:59.573Z,2.13
2022-12-10T17:02:19.062Z,2.00
2022-12-10T17:07:24.722Z,2.63
2022-12-10T17:12:32.346Z,6.35
2022-12-10T17:17:37.838Z,3.90
2022-12-10T17:22:43.277Z,3.25
2022-12-10T17:27:49.266Z,1.98
2022-12-10T17:32:55.355Z,4.05
2022-12-10T17:38:00.911Z,2.58
2022-12-10T17:43:06.579Z,2.50
2022-12-10T17:48:17.701Z,1.55
2022-12-10T17:53:23.349Z,2.75
2022-12-10T17:58:29.345Z,1.98
2022-12-10T18:03:35.321Z,2.13
2022-12-10T18:08:41.253Z,2.10
2022-12-10T18:13:48.088Z,2.17
2022-12-10T18:18:53.883Z,2.28
2022-12-10T18:23:59.707Z,2.22
2022-12-10T18:29:07.876Z,2.00
2022-12-10T18:34:15.516Z,2.35
2022-12-10T18:39:27.670Z,2.50
2022-12-10T18:44:33.777Z,1.85
2022-12-10T18:49:40.927Z,2.65
2022-12-10T18:54:48.507Z,3.05
2022-12-10T18:59:54.193Z,3.15
2022-12-10T19:04:59.708Z,3.45
2022-12-10T19:10:16.851Z,2.38
2022-12-10T19:15:24.134Z,3.28
2022-12-10T19:20:31.670Z,2.67
2022-12-10T19:25:37.853Z,3.03
2022-12-10T19:30:44.167Z,3.47
2022-12-10T19:35:49.971Z,2.95
2022-12-10T19:40:58.239Z,2.75
2022-12-10T19:46:34.989Z,2.47
2022-12-10T19:51:40.997Z,3.05
2022-12-10T19:56:46.965Z,3.00
2022-12-10T20:01:53.623Z,2.83
2022-12-10T20:06:59.201Z,3.00
2022-12-10T20:12:05.124Z,2.50
2022-12-10T20:17:15.302Z,2.72
2022-12-10T20:22:21.486Z,2.30
2022-12-10T20:27:26.974Z,3.35
2022-12-10T20:32:32.842Z,1.80
2022-12-10T20:37:39.004Z,3.10
2022-12-10T20:42:44.547Z,1.95
2022-12-10T20:47:50.091Z,1.63
2022-12-10T20:52:55.587Z,1.80
2022-12-10T20:58:01.233Z,2.13
2022-12-10T21:03:06.972Z,1.73
2022-12-10T21:08:13.352Z,1.73
2022-12-10T21:13:21.769Z,2.60
2022-12-10T21:18:28.182Z,1.45
2022-12-10T21:23:33.929Z,1.38
2022-12-10T21:28:39.623Z,2.08
2022-12-10T21:33:45.946Z,1.63
2022-12-10T21:38:53.575Z,1.67
2022-12-10T21:43:59.102Z,1.13
2022-12-10T21:49:05.205Z,1.58
2022-12-10T21:54:10.957Z,1.65
2022-12-10T21:59:19.829Z,1.83
2022-12-10T22:04:25.617Z,2.00
2022-12-10T22:09:31.396Z,2.17
2022-12-10T22:14:36.797Z,1.40
2022-12-10T22:19:42.903Z,1.35
2022-12-10T22:24:48.482Z,1.35
2022-12-10T22:29:54.060Z,1.45
2022-12-10T22:34:59.872Z,2.70
2022-12-10T22:40:06.878Z,1.25
2022-12-10T22:45:13.190Z,1.27
2022-12-10T22:50:18.991Z,1.27
2022-12-10T22:55:24.826Z,2.03
2022-12-10T23:00:30.523Z,1.42
2022-12-10T23:05:37.088Z,1.50
2022-12-10T23:10:43.057Z,1.17
2022-12-10T23:15:50.190Z,2.72
2022-12-10T23:20:55.746Z,1.25
2022-12-10T23:26:03.301Z,2.70
2022-12-10T23:31:09.421Z,0.95
2022-12-10T23:36:15.633Z,1.13
2022-12-10T23:41:21.199Z,1.73
2022-12-10T23:46:26.834Z,1.17
2022-12-10T23:51:32.334Z,2.17
2022-12-10T23:56:39.703Z,2.05
